sensor_id;sensor_type;location;lat;lon;timestamp;pressure;altitude;pressure_sealevel;temperature;humidity
67397;BME280;57728;50.448;18.824;2022-07-29T00:01:51;98178.47;;;17.70;47.75
67397;BME280;57728;50.448;18.824;2022-07-29T00:03:56;98179.94;;;17.68;47.66
67397;BME280;57728;50.448;18.824;2022-07-29T00:05:58;98179.09;;;17.67;47.65
67397;BME280;57728;50.448;18.824;2022-07-29T00:08:15;98179.09;;;17.67;47.89
67397;BME280;57728;50.448;18.824;2022-07-29T00:10:17;98181.53;;;17.69;47.99
67397;BME280;57728;50.448;18.824;2022-07-29T00:12:22;98180.41;;;17.70;48.29
67397;BME280;57728;50.448;18.824;2022-07-29T00:14:26;98173.66;;;17.67;48.46
67397;BME280;57728;50.448;18.824;2022-07-29T00:16:31;98173.53;;;17.64;48.54
67397;BME280;57728;50.448;18.824;2022-07-29T00:18:36;98175.31;;;17.60;48.25
67397;BME280;57728;50.448;18.824;2022-07-29T00:20:37;98180.25;;;17.58;48.60
67397;BME280;57728;50.448;18.824;2022-07-29T00:22:39;98176.41;;;17.59;48.28
67397;BME280;57728;50.448;18.824;2022-07-29T00:24:41;98163.13;;;17.57;48.53
67397;BME280;57728;50.448;18.824;2022-07-29T00:26:42;98180.41;;;17.61;48.78
67397;BME280;57728;50.448;18.824;2022-07-29T00:28:44;98174.47;;;17.59;48.27
67397;BME280;57728;50.448;18.824;2022-07-29T00:30:48;98175.59;;;17.58;48.35
67397;BME280;57728;50.448;18.824;2022-07-29T00:32:49;98171.94;;;17.54;48.93
67397;BME280;57728;50.448;18.824;2022-07-29T00:34:55;98175.00;;;17.53;48.63
67397;BME280;57728;50.448;18.824;2022-07-29T00:37:18;98176.91;;;17.52;48.92
67397;BME280;57728;50.448;18.824;2022-07-29T00:39:21;98169.84;;;17.51;48.84
67397;BME280;57728;50.448;18.824;2022-07-29T00:41:25;98171.47;;;17.52;48.81
67397;BME280;57728;50.448;18.824;2022-07-29T00:43:35;98173.22;;;17.48;48.84
67397;BME280;57728;50.448;18.824;2022-07-29T00:45:43;98167.28;;;17.46;48.84
67397;BME280;57728;50.448;18.824;2022-07-29T00:47:46;98162.19;;;17.44;48.50
67397;BME280;57728;50.448;18.824;2022-07-29T00:49:48;98166.34;;;17.42;48.86
67397;BME280;57728;50.448;18.824;2022-07-29T00:51:53;98170.81;;;17.38;49.40
67397;BME280;57728;50.448;18.824;2022-07-29T00:53:56;98163.28;;;17.35;49.28
67397;BME280;57728;50.448;18.824;2022-07-29T00:55:59;98156.41;;;17.29;49.10
67397;BME280;57728;50.448;18.824;2022-07-29T00:58:01;98157.06;;;17.26;49.16
67397;BME280;57728;50.448;18.824;2022-07-29T01:00:10;98162.03;;;17.23;49.16
67397;BME280;57728;50.448;18.824;2022-07-29T01:02:14;98156.69;;;17.18;49.41
67397;BME280;57728;50.448;18.824;2022-07-29T01:04:15;98158.47;;;17.14;49.18
67397;BME280;57728;50.448;18.824;2022-07-29T01:06:19;98156.06;;;17.13;49.67
67397;BME280;57728;50.448;18.824;2022-07-29T01:08:23;98161.03;;;17.11;49.16
67397;BME280;57728;50.448;18.824;2022-07-29T01:10:25;98157.50;;;17.10;49.33
67397;BME280;57728;50.448;18.824;2022-07-29T01:12:30;98151.09;;;17.06;49.22
67397;BME280;57728;50.448;18.824;2022-07-29T01:14:36;98155.75;;;17.06;49.35
67397;BME280;57728;50.448;18.824;2022-07-29T01:16:58;98143.56;;;17.03;49.34
67397;BME280;57728;50.448;18.824;2022-07-29T01:22:27;98143.25;;;17.05;49.58
67397;BME280;57728;50.448;18.824;2022-07-29T01:30:03;98144.69;;;16.93;49.95
67397;BME280;57728;50.448;18.824;2022-07-29T01:32:12;98146.63;;;16.93;49.80
67397;BME280;57728;50.448;18.824;2022-07-29T01:34:41;98147.75;;;16.92;49.87
67397;BME280;57728;50.448;18.824;2022-07-29T01:37:20;98151.25;;;16.92;49.62
67397;BME280;57728;50.448;18.824;2022-07-29T01:39:51;98156.06;;;16.95;49.32
67397;BME280;57728;50.448;18.824;2022-07-29T01:47:17;98139.88;;;16.90;49.73
67397;BME280;57728;50.448;18.824;2022-07-29T01:49:27;98137.47;;;16.89;49.65
67397;BME280;57728;50.448;18.824;2022-07-29T01:51:41;98139.25;;;16.85;49.74
67397;BME280;57728;50.448;18.824;2022-07-29T01:54:08;98137.00;;;16.87;49.70
67397;BME280;57728;50.448;18.824;2022-07-29T01:56:18;98135.09;;;16.87;49.97
67397;BME280;57728;50.448;18.824;2022-07-29T01:58:24;98139.25;;;16.85;49.77
67397;BME280;57728;50.448;18.824;2022-07-29T02:00:29;98138.75;;;16.83;49.61
67397;BME280;57728;50.448;18.824;2022-07-29T02:02:35;98135.56;;;16.81;49.53
67397;BME280;57728;50.448;18.824;2022-07-29T02:04:43;98132.50;;;16.82;49.37
67397;BME280;57728;50.448;18.824;2022-07-29T02:06:51;98132.03;;;16.80;49.87
67397;BME280;57728;50.448;18.824;2022-07-29T02:09:11;98131.25;;;16.80;49.38
67397;BME280;57728;50.448;18.824;2022-07-29T02:11:20;98128.53;;;16.80;49.31
67397;BME280;57728;50.448;18.824;2022-07-29T02:13:24;98140.03;;;16.77;49.20
67397;BME280;57728;50.448;18.824;2022-07-29T02:15:32;98130.91;;;16.72;49.46
67397;BME280;57728;50.448;18.824;2022-07-29T02:18:04;98129.59;;;16.70;49.48
67397;BME280;57728;50.448;18.824;2022-07-29T02:20:09;98136.81;;;16.74;49.16
67397;BME280;57728;50.448;18.824;2022-07-29T02:22:12;98139.53;;;16.74;49.00
67397;BME280;57728;50.448;18.824;2022-07-29T02:24:28;98133.63;;;16.72;49.09
67397;BME280;57728;50.448;18.824;2022-07-29T02:26:33;98131.69;;;16.73;49.20
67397;BME280;57728;50.448;18.824;2022-07-29T02:28:35;98128.97;;;16.73;49.48
67397;BME280;57728;50.448;18.824;2022-07-29T02:30:41;98128.03;;;16.78;49.18
67397;BME280;57728;50.448;18.824;2022-07-29T02:33:07;98123.06;;;16.80;48.85
67397;BME280;57728;50.448;18.824;2022-07-29T02:35:13;98122.75;;;16.81;48.80
67397;BME280;57728;50.448;18.824;2022-07-29T02:37:29;98120.19;;;16.85;48.87
67397;BME280;57728;50.448;18.824;2022-07-29T02:39:34;98126.44;;;16.85;48.97
67397;BME280;57728;50.448;18.824;2022-07-29T02:41:54;98114.41;;;16.86;48.97
67397;BME280;57728;50.448;18.824;2022-07-29T02:44:12;98117.94;;;16.87;48.32
67397;BME280;57728;50.448;18.824;2022-07-29T02:46:23;98116.50;;;16.89;48.54
67397;BME280;57728;50.448;18.824;2022-07-29T02:48:50;98124.50;;;16.94;48.56
67397;BME280;57728;50.448;18.824;2022-07-29T02:51:05;98114.75;;;16.93;48.50
67397;BME280;57728;50.448;18.824;2022-07-29T02:53:24;98124.50;;;16.94;47.98
67397;BME280;57728;50.448;18.824;2022-07-29T02:55:33;98113.97;;;16.93;48.53
67397;BME280;57728;50.448;18.824;2022-07-29T02:57:57;98116.19;;;16.91;47.88
67397;BME280;57728;50.448;18.824;2022-07-29T03:00:12;98102.56;;;16.91;47.78
67397;BME280;57728;50.448;18.824;2022-07-29T03:02:18;98109.47;;;16.88;47.99
67397;BME280;57728;50.448;18.824;2022-07-29T03:04:39;98108.19;;;16.86;48.35
67397;BME280;57728;50.448;18.824;2022-07-29T03:06:46;98108.81;;;16.83;48.63
67397;BME280;57728;50.448;18.824;2022-07-29T03:09:11;98109.94;;;16.82;48.42
67397;BME280;57728;50.448;18.824;2022-07-29T03:11:23;98104.03;;;16.80;48.32
67397;BME280;57728;50.448;18.824;2022-07-29T03:13:34;98106.75;;;16.80;48.67
67397;BME280;57728;50.448;18.824;2022-07-29T03:15:52;98099.22;;;16.77;48.19
67397;BME280;57728;50.448;18.824;2022-07-29T03:18:33;98100.81;;;16.78;48.04
67397;BME280;57728;50.448;18.824;2022-07-29T03:20:42;98100.34;;;16.75;48.52
67397;BME280;57728;50.448;18.824;2022-07-29T03:22:55;98099.22;;;16.77;48.19
67397;BME280;57728;50.448;18.824;2022-07-29T03:25:10;98094.75;;;16.81;48.35
67397;BME280;57728;50.448;18.824;2022-07-29T03:27:43;98097.00;;;16.87;48.19
67397;BME280;57728;50.448;18.824;2022-07-29T03:30:00;98098.25;;;16.90;48.02
67397;BME280;57728;50.448;18.824;2022-07-29T03:32:16;98102.28;;;16.92;48.25
67397;BME280;57728;50.448;18.824;2022-07-29T03:34:37;98105.63;;;16.98;48.15
67397;BME280;57728;50.448;18.824;2022-07-29T03:36:50;98099.53;;;17.01;48.22
67397;BME280;57728;50.448;18.824;2022-07-29T03:38:53;98097.00;;;17.05;48.03
67397;BME280;57728;50.448;18.824;2022-07-29T03:41:18;98108.03;;;17.08;48.03
67397;BME280;57728;50.448;18.824;2022-07-29T03:43:37;98108.03;;;17.08;48.07
67397;BME280;57728;50.448;18.824;2022-07-29T03:45:53;98102.25;;;17.10;48.06
67397;BME280;57728;50.448;18.824;2022-07-29T03:48:19;98103.56;;;17.12;48.16
67397;BME280;57728;50.448;18.824;2022-07-29T03:50:24;98103.56;;;17.12;48.00
67397;BME280;57728;50.448;18.824;2022-07-29T03:52:32;98113.47;;;17.17;48.43
67397;BME280;57728;50.448;18.824;2022-07-29T03:54:40;98110.94;;;17.20;48.34
67397;BME280;57728;50.448;18.824;2022-07-29T03:56:50;98109.00;;;17.21;48.35
67397;BME280;57728;50.448;18.824;2022-07-29T03:59:12;98111.25;;;17.28;47.60
67397;BME280;57728;50.448;18.824;2022-07-29T04:01:44;98111.38;;;17.31;47.59
67397;BME280;57728;50.448;18.824;2022-07-29T04:03:49;98108.81;;;17.35;47.52
67397;BME280;57728;50.448;18.824;2022-07-29T04:06:05;98109.16;;;17.33;46.97
67397;BME280;57728;50.448;18.824;2022-07-29T04:08:09;98110.44;;;17.36;47.71
67397;BME280;57728;50.448;18.824;2022-07-29T04:10:14;98104.66;;;17.37;47.30
67397;BME280;57728;50.448;18.824;2022-07-29T04:12:19;98114.91;;;17.40;47.61
67397;BME280;57728;50.448;18.824;2022-07-29T04:14:23;98120.84;;;17.42;47.56
67397;BME280;57728;50.448;18.824;2022-07-29T04:16:36;98114.75;;;17.45;47.14
67397;BME280;57728;50.448;18.824;2022-07-29T04:18:39;98111.84;;;17.51;47.56
67397;BME280;57728;50.448;18.824;2022-07-29T04:20:43;98115.38;;;17.51;47.11
67397;BME280;57728;50.448;18.824;2022-07-29T04:22:46;98120.34;;;17.49;46.86
67397;BME280;57728;50.448;18.824;2022-07-29T04:24:47;98117.13;;;17.47;47.18
67397;BME280;57728;50.448;18.824;2022-07-29T04:26:51;98112.50;;;17.47;47.01
67397;BME280;57728;50.448;18.824;2022-07-29T04:29:04;98114.25;;;17.43;47.54
67397;BME280;57728;50.448;18.824;2022-07-29T04:31:14;98118.25;;;17.46;47.56
67397;BME280;57728;50.448;18.824;2022-07-29T04:33:16;98117.97;;;17.47;47.42
67397;BME280;57728;50.448;18.824;2022-07-29T04:35:19;98107.38;;;17.46;47.12
67397;BME280;57728;50.448;18.824;2022-07-29T04:37:24;98107.38;;;17.46;47.26
67397;BME280;57728;50.448;18.824;2022-07-29T04:39:34;98105.94;;;17.48;47.34
67397;BME280;57728;50.448;18.824;2022-07-29T04:41:39;98096.00;;;17.53;47.53
67397;BME280;57728;50.448;18.824;2022-07-29T04:43:42;98084.28;;;17.61;47.20
67397;BME280;57728;50.448;18.824;2022-07-29T04:45:43;98082.50;;;17.65;46.97
67397;BME280;57728;50.448;18.824;2022-07-29T04:47:45;98084.38;;;17.73;47.58
67397;BME280;57728;50.448;18.824;2022-07-29T04:49:46;98090.44;;;17.79;46.64
67397;BME280;57728;50.448;18.824;2022-07-29T04:51:50;98086.88;;;17.87;46.84
67397;BME280;57728;50.448;18.824;2022-07-29T04:53:52;98094.56;;;17.93;47.08
67397;BME280;57728;50.448;18.824;2022-07-29T04:55:53;98093.59;;;17.98;46.97
67397;BME280;57728;50.448;18.824;2022-07-29T04:57:54;98095.31;;;18.03;47.08
67397;BME280;57728;50.448;18.824;2022-07-29T04:59:58;98091.75;;;18.11;46.84
67397;BME280;57728;50.448;18.824;2022-07-29T05:02:01;98091.13;;;18.14;46.15
67397;BME280;57728;50.448;18.824;2022-07-29T05:04:02;98089.84;;;18.20;46.39
67397;BME280;57728;50.448;18.824;2022-07-29T05:06:04;98092.03;;;18.27;46.48
67397;BME280;57728;50.448;18.824;2022-07-29T05:08:05;98088.66;;;18.30;46.75
67397;BME280;57728;50.448;18.824;2022-07-29T05:10:07;98088.78;;;18.33;46.28
67397;BME280;57728;50.448;18.824;2022-07-29T05:12:09;98096.78;;;18.38;46.57
67397;BME280;57728;50.448;18.824;2022-07-29T05:14:10;98103.50;;;18.41;46.54
67397;BME280;57728;50.448;18.824;2022-07-29T05:16:32;98101.88;;;18.49;46.38
67397;BME280;57728;50.448;18.824;2022-07-29T05:18:37;98102.00;;;18.52;46.37
67397;BME280;57728;50.448;18.824;2022-07-29T05:20:41;98102.94;;;18.56;46.73
67397;BME280;57728;50.448;18.824;2022-07-29T05:22:44;98105.34;;;18.58;46.27
67397;BME280;57728;50.448;18.824;2022-07-29T05:24:46;98100.66;;;18.58;46.27
67397;BME280;57728;50.448;18.824;2022-07-29T05:26:47;98100.38;;;18.51;45.75
67397;BME280;57728;50.448;18.824;2022-07-29T05:28:49;98098.66;;;18.46;46.16
67397;BME280;57728;50.448;18.824;2022-07-29T05:30:51;98085.22;;;18.41;46.79
67397;BME280;57728;50.448;18.824;2022-07-29T05:32:52;98083.78;;;18.35;46.40
67397;BME280;57728;50.448;18.824;2022-07-29T05:34:55;98090.25;;;18.31;46.55
67397;BME280;57728;50.448;18.824;2022-07-29T05:37:11;98072.78;;;18.23;47.14
67397;BME280;57728;50.448;18.824;2022-07-29T05:39:15;98073.59;;;18.23;47.03
67397;BME280;57728;50.448;18.824;2022-07-29T05:41:18;98082.13;;;18.22;47.07
67397;BME280;57728;50.448;18.824;2022-07-29T05:43:20;98083.91;;;18.18;47.58
67397;BME280;57728;50.448;18.824;2022-07-29T05:45:22;98076.72;;;18.13;47.38
67397;BME280;57728;50.448;18.824;2022-07-29T05:47:25;98076.84;;;18.17;47.64
67397;BME280;57728;50.448;18.824;2022-07-29T05:49:27;98073.94;;;18.22;47.79
67397;BME280;57728;50.448;18.824;2022-07-29T05:51:29;98071.81;;;18.28;47.49
67397;BME280;57728;50.448;18.824;2022-07-29T05:53:32;98079.81;;;18.33;47.58
67397;BME280;57728;50.448;18.824;2022-07-29T05:55:33;98077.03;;;18.41;47.42
67397;BME280;57728;50.448;18.824;2022-07-29T05:57:35;98088.88;;;18.45;46.97
67397;BME280;57728;50.448;18.824;2022-07-29T05:59:36;98092.81;;;18.57;47.48
67397;BME280;57728;50.448;18.824;2022-07-29T06:01:38;98096.28;;;18.66;47.11
67397;BME280;57728;50.448;18.824;2022-07-29T06:03:42;98099.09;;;18.78;47.41
67397;BME280;57728;50.448;18.824;2022-07-29T06:05:43;98097.09;;;18.87;46.89
67397;BME280;57728;50.448;18.824;2022-07-29T06:07:45;98109.81;;;19.04;46.88
67397;BME280;57728;50.448;18.824;2022-07-29T06:09:47;98108.09;;;19.20;46.87
67397;BME280;57728;50.448;18.824;2022-07-29T06:11:48;98103.72;;;19.40;46.62
67397;BME280;57728;50.448;18.824;2022-07-29T06:13:49;98103.56;;;19.58;46.27
67397;BME280;57728;50.448;18.824;2022-07-29T06:15:51;98109.84;;;19.70;45.64
67397;BME280;57728;50.448;18.824;2022-07-29T06:17:52;98103.63;;;19.82;45.28
67397;BME280;57728;50.448;18.824;2022-07-29T06:19:55;98104.78;;;19.93;45.36
67397;BME280;57728;50.448;18.824;2022-07-29T06:21:58;98102.75;;;20.03;45.20
67397;BME280;57728;50.448;18.824;2022-07-29T06:23:59;98098.66;;;20.09;44.56
67397;BME280;57728;50.448;18.824;2022-07-29T06:26:00;98106.94;;;20.12;44.97
67397;BME280;57728;50.448;18.824;2022-07-29T06:28:03;98100.81;;;20.15;44.71
67397;BME280;57728;50.448;18.824;2022-07-29T06:30:05;98102.50;;;20.20;44.44
67397;BME280;57728;50.448;18.824;2022-07-29T06:32:08;98096.25;;;20.19;44.10
67397;BME280;57728;50.448;18.824;2022-07-29T06:34:11;98098.75;;;20.25;44.48
67397;BME280;57728;50.448;18.824;2022-07-29T06:36:14;98098.53;;;20.30;45.13
67397;BME280;57728;50.448;18.824;2022-07-29T06:38:15;98098.75;;;20.37;44.71
67397;BME280;57728;50.448;18.824;2022-07-29T06:40:17;98093.16;;;20.46;44.11
67397;BME280;57728;50.448;18.824;2022-07-29T06:42:43;98092.34;;;20.57;44.74
67397;BME280;57728;50.448;18.824;2022-07-29T06:44:45;98089.84;;;20.64;44.51
67397;BME280;57728;50.448;18.824;2022-07-29T06:46:47;98102.38;;;20.78;44.39
67397;BME280;57728;50.448;18.824;2022-07-29T06:48:51;98092.19;;;20.90;45.09
67397;BME280;57728;50.448;18.824;2022-07-29T06:50:52;98087.00;;;21.01;43.90
67397;BME280;57728;50.448;18.824;2022-07-29T06:52:54;98087.22;;;21.08;43.90
67397;BME280;57728;50.448;18.824;2022-07-29T06:54:55;98091.75;;;21.16;44.26
67397;BME280;57728;50.448;18.824;2022-07-29T06:56:56;98095.47;;;21.24;44.25
67397;BME280;57728;50.448;18.824;2022-07-29T06:58:58;98084.03;;;21.34;44.20
67397;BME280;57728;50.448;18.824;2022-07-29T07:01:02;98083.53;;;21.45;43.68
67397;BME280;57728;50.448;18.824;2022-07-29T07:03:05;98089.50;;;21.62;44.22
67397;BME280;57728;50.448;18.824;2022-07-29T07:05:07;98090.03;;;21.84;43.35
67397;BME280;57728;50.448;18.824;2022-07-29T07:07:08;98083.88;;;22.03;43.18
67397;BME280;57728;50.448;18.824;2022-07-29T07:09:09;98088.22;;;22.20;43.07
67397;BME280;57728;50.448;18.824;2022-07-29T07:11:11;98082.63;;;22.32;43.03
67397;BME280;57728;50.448;18.824;2022-07-29T07:13:12;98082.13;;;22.46;42.88
67397;BME280;57728;50.448;18.824;2022-07-29T07:15:14;98086.72;;;22.57;43.13
67397;BME280;57728;50.448;18.824;2022-07-29T07:17:16;98102.13;;;22.62;42.05
67397;BME280;57728;50.448;18.824;2022-07-29T07:19:17;98086.72;;;22.57;41.78
67397;BME280;57728;50.448;18.824;2022-07-29T07:21:19;98085.41;;;22.51;42.00
67397;BME280;57728;50.448;18.824;2022-07-29T07:23:23;98089.38;;;22.54;41.93
67397;BME280;57728;50.448;18.824;2022-07-29T07:25:25;98092.38;;;22.64;42.15
67397;BME280;57728;50.448;18.824;2022-07-29T07:27:26;98097.56;;;22.70;41.94
67397;BME280;57728;50.448;18.824;2022-07-29T07:29:28;98100.97;;;22.63;41.50
67397;BME280;57728;50.448;18.824;2022-07-29T07:31:31;98101.78;;;22.63;41.59
67397;BME280;57728;50.448;18.824;2022-07-29T07:33:32;98112.94;;;22.71;42.18
67397;BME280;57728;50.448;18.824;2022-07-29T07:35:34;98110.19;;;22.71;41.64
67397;BME280;57728;50.448;18.824;2022-07-29T07:37:35;98115.09;;;22.81;41.84
67397;BME280;57728;50.448;18.824;2022-07-29T07:39:37;98114.19;;;22.93;41.50
67397;BME280;57728;50.448;18.824;2022-07-29T07:41:39;98110.97;;;23.06;40.77
67397;BME280;57728;50.448;18.824;2022-07-29T07:43:40;98109.28;;;23.21;40.90
67397;BME280;57728;50.448;18.824;2022-07-29T07:45:41;98101.13;;;23.25;40.30
67397;BME280;57728;50.448;18.824;2022-07-29T07:47:43;98093.75;;;23.29;41.08
67397;BME280;57728;50.448;18.824;2022-07-29T07:49:48;98101.50;;;23.43;41.01
67397;BME280;57728;50.448;18.824;2022-07-29T07:51:51;98096.47;;;23.48;40.29
67397;BME280;57728;50.448;18.824;2022-07-29T07:53:54;98100.94;;;23.56;41.26
67397;BME280;57728;50.448;18.824;2022-07-29T07:55:55;98095.97;;;23.62;40.02
67397;BME280;57728;50.448;18.824;2022-07-29T07:57:56;98095.16;;;23.61;40.02
67397;BME280;57728;50.448;18.824;2022-07-29T08:00:03;98103.50;;;23.65;40.47
67397;BME280;57728;50.448;18.824;2022-07-29T08:02:13;98095.06;;;23.58;39.96
67397;BME280;57728;50.448;18.824;2022-07-29T08:04:14;98098.84;;;23.50;39.74
67397;BME280;57728;50.448;18.824;2022-07-29T08:06:16;98103.94;;;23.48;40.31
67397;BME280;57728;50.448;18.824;2022-07-29T08:08:21;98106.81;;;23.55;41.10
67397;BME280;57728;50.448;18.824;2022-07-29T08:10:27;98117.59;;;23.83;41.32
67397;BME280;57728;50.448;18.824;2022-07-29T08:12:48;98108.69;;;24.16;40.94
67397;BME280;57728;50.448;18.824;2022-07-29T08:14:49;98100.13;;;24.44;40.32
67397;BME280;57728;50.448;18.824;2022-07-29T08:16:50;98092.16;;;24.66;39.87
67397;BME280;57728;50.448;18.824;2022-07-29T08:18:53;98095.13;;;24.80;39.12
67397;BME280;57728;50.448;18.824;2022-07-29T08:20:58;98094.84;;;24.89;38.84
67397;BME280;57728;50.448;18.824;2022-07-29T08:23:02;98097.25;;;24.94;38.83
67397;BME280;57728;50.448;18.824;2022-07-29T08:25:06;98086.31;;;24.97;38.81
67397;BME280;57728;50.448;18.824;2022-07-29T08:27:13;98093.16;;;25.11;39.24
67397;BME280;57728;50.448;18.824;2022-07-29T08:29:16;98099.19;;;25.20;39.26
67397;BME280;57728;50.448;18.824;2022-07-29T08:31:18;98100.50;;;25.29;38.69
67397;BME280;57728;50.448;18.824;2022-07-29T08:33:19;98111.84;;;25.24;37.79
67397;BME280;57728;50.448;18.824;2022-07-29T08:35:24;98100.06;;;25.27;38.73
67397;BME280;57728;50.448;18.824;2022-07-29T08:37:30;98111.25;;;25.42;38.96
67397;BME280;57728;50.448;18.824;2022-07-29T08:39:31;98107.84;;;25.55;37.88
67397;BME280;57728;50.448;18.824;2022-07-29T08:41:33;98112.63;;;25.58;37.92
67397;BME280;57728;50.448;18.824;2022-07-29T08:43:35;98111.84;;;25.58;36.90
67397;BME280;57728;50.448;18.824;2022-07-29T08:45:46;98116.97;;;25.60;36.96
67397;BME280;57728;50.448;18.824;2022-07-29T08:47:49;98110.41;;;25.71;38.05
67397;BME280;57728;50.448;18.824;2022-07-29T08:49:51;98108.53;;;25.79;36.89
67397;BME280;57728;50.448;18.824;2022-07-29T08:51:53;98106.28;;;25.92;37.34
67397;BME280;57728;50.448;18.824;2022-07-29T08:53:55;98102.81;;;26.02;37.54
67397;BME280;57728;50.448;18.824;2022-07-29T08:55:59;98109.63;;;26.15;37.19
67397;BME280;57728;50.448;18.824;2022-07-29T08:58:01;98106.22;;;26.29;36.97
67397;BME280;57728;50.448;18.824;2022-07-29T09:00:05;98104.69;;;26.35;36.62
67397;BME280;57728;50.448;18.824;2022-07-29T09:02:19;98107.44;;;26.35;36.13
67397;BME280;57728;50.448;18.824;2022-07-29T09:04:24;98103.53;;;26.40;36.22
67397;BME280;57728;50.448;18.824;2022-07-29T09:06:34;98092.56;;;26.50;36.34
67397;BME280;57728;50.448;18.824;2022-07-29T09:08:41;98089.41;;;26.52;35.89
67397;BME280;57728;50.448;18.824;2022-07-29T09:10:44;98084.69;;;26.56;35.83
67397;BME280;57728;50.448;18.824;2022-07-29T09:12:46;98094.25;;;26.69;36.11
67397;BME280;57728;50.448;18.824;2022-07-29T09:14:48;98094.31;;;26.84;36.16
67397;BME280;57728;50.448;18.824;2022-07-29T09:18:53;98101.28;;;27.25;35.75
67397;BME280;57728;50.448;18.824;2022-07-29T09:20:55;98091.03;;;27.44;34.88
67397;BME280;57728;50.448;18.824;2022-07-29T09:23:16;98097.84;;;27.68;34.34
67397;BME280;57728;50.448;18.824;2022-07-29T09:25:38;98102.25;;;27.97;33.70
67397;BME280;57728;50.448;18.824;2022-07-29T09:27:49;98101.06;;;28.16;33.64
67397;BME280;57728;50.448;18.824;2022-07-29T09:29:59;98098.31;;;28.20;32.87
67397;BME280;57728;50.448;18.824;2022-07-29T09:32:06;98105.03;;;28.12;33.26
67397;BME280;57728;50.448;18.824;2022-07-29T09:34:13;98093.94;;;27.97;33.30
67397;BME280;57728;50.448;18.824;2022-07-29T09:36:15;98095.50;;;27.77;33.23
67397;BME280;57728;50.448;18.824;2022-07-29T09:38:20;98093.91;;;27.62;33.00
67397;BME280;57728;50.448;18.824;2022-07-29T09:40:27;98092.28;;;27.54;33.66
67397;BME280;57728;50.448;18.824;2022-07-29T09:42:30;98086.34;;;27.55;34.30
67397;BME280;57728;50.448;18.824;2022-07-29T09:44:42;98089.91;;;27.56;33.46
67397;BME280;57728;50.448;18.824;2022-07-29T09:49:12;98080.88;;;27.87;33.84
67397;BME280;57728;50.448;18.824;2022-07-29T09:51:20;98065.44;;;28.47;33.20
67397;BME280;57728;50.448;18.824;2022-07-29T09:53:37;98071.28;;;28.88;32.03
67397;BME280;57728;50.448;18.824;2022-07-29T09:55:48;98068.03;;;29.08;31.52
67397;BME280;57728;50.448;18.824;2022-07-29T09:57:50;98068.41;;;29.13;31.62
67397;BME280;57728;50.448;18.824;2022-07-29T10:00:09;98067.28;;;29.00;31.46
67397;BME280;57728;50.448;18.824;2022-07-29T10:02:15;98072.41;;;29.05;31.69
67397;BME280;57728;50.448;18.824;2022-07-29T10:04:19;98065.97;;;29.33;31.74
67397;BME280;57728;50.448;18.824;2022-07-29T10:06:21;98062.63;;;29.63;31.11
67397;BME280;57728;50.448;18.824;2022-07-29T10:08:25;98065.97;;;29.96;30.11
67397;BME280;57728;50.448;18.824;2022-07-29T10:10:32;98063.97;;;29.96;29.82
67397;BME280;57728;50.448;18.824;2022-07-29T10:14:54;98060.13;;;29.83;29.81
67397;BME280;57728;50.448;18.824;2022-07-29T10:16:56;98063.31;;;29.78;29.86
67397;BME280;57728;50.448;18.824;2022-07-29T10:19:01;98066.06;;;29.82;30.67
67397;BME280;57728;50.448;18.824;2022-07-29T10:21:02;98063.19;;;29.96;31.38
67397;BME280;57728;50.448;18.824;2022-07-29T10:23:05;98048.84;;;30.01;30.55
67397;BME280;57728;50.448;18.824;2022-07-29T10:25:08;98058.09;;;29.91;30.10
67397;BME280;57728;50.448;18.824;2022-07-29T10:27:10;98060.88;;;29.87;31.30
67397;BME280;57728;50.448;18.824;2022-07-29T10:29:11;98056.16;;;29.84;30.21
67397;BME280;57728;50.448;18.824;2022-07-29T10:31:42;98051.88;;;29.65;30.13
67397;BME280;57728;50.448;18.824;2022-07-29T10:33:59;98058.41;;;29.37;30.74
67397;BME280;57728;50.448;18.824;2022-07-29T10:36:38;98054.75;;;29.55;31.08
67397;BME280;57728;50.448;18.824;2022-07-29T10:39:15;98049.00;;;29.83;30.66
67397;BME280;57728;50.448;18.824;2022-07-29T10:41:59;98040.81;;;30.14;30.12
67397;BME280;57728;50.448;18.824;2022-07-29T10:44:21;98048.31;;;30.17;30.30
67397;BME280;57728;50.448;18.824;2022-07-29T10:46:25;98053.59;;;30.04;30.39
67397;BME280;57728;50.448;18.824;2022-07-29T10:48:28;98054.06;;;29.95;29.90
67397;BME280;57728;50.448;18.824;2022-07-29T10:50:56;98045.50;;;29.72;30.54
67397;BME280;57728;50.448;18.824;2022-07-29T10:53:04;98053.53;;;29.56;30.63
67397;BME280;57728;50.448;18.824;2022-07-29T10:55:05;98052.44;;;29.46;31.67
67397;BME280;57728;50.448;18.824;2022-07-29T10:57:19;98059.56;;;29.43;30.92
67397;BME280;57728;50.448;18.824;2022-07-29T10:59:27;98054.44;;;29.42;30.23
67397;BME280;57728;50.448;18.824;2022-07-29T11:01:32;98056.38;;;29.45;31.16
67397;BME280;57728;50.448;18.824;2022-07-29T11:03:47;98052.00;;;29.51;30.68
67397;BME280;57728;50.448;18.824;2022-07-29T11:05:55;98059.50;;;29.58;30.40
67397;BME280;57728;50.448;18.824;2022-07-29T11:14:59;98059.94;;;29.45;31.17
67397;BME280;57728;50.448;18.824;2022-07-29T11:17:05;98057.69;;;29.22;31.27
67397;BME280;57728;50.448;18.824;2022-07-29T11:21:34;98056.22;;;28.93;32.51
67397;BME280;57728;50.448;18.824;2022-07-29T11:23:38;98055.03;;;28.97;33.41
67397;BME280;57728;50.448;18.824;2022-07-29T11:25:40;98053.81;;;28.98;32.60
67397;BME280;57728;50.448;18.824;2022-07-29T11:27:42;98049.88;;;28.89;32.42
67397;BME280;57728;50.448;18.824;2022-07-29T11:31:52;98058.31;;;28.35;31.93
67397;BME280;57728;50.448;18.824;2022-07-29T11:33:57;98061.91;;;28.18;32.74
67397;BME280;57728;50.448;18.824;2022-07-29T11:36:16;98052.38;;;28.05;34.01
67397;BME280;57728;50.448;18.824;2022-07-29T11:38:24;98054.75;;;27.92;33.02